Chatham, Virginia
Current Conditions -  °F | °C
As of 8:53 PM on Saturday 20 Dec 2014 (Local Time) from KDAN Reporting Station
Overcast Overcast  
Wind Chill: 38°   Ceiling: 6500
Heat Index: 38°   Visibility: 10mi
Dew Point: 31°   Wind: 0mph
Humidity: 76%   Direction: NA
Pressure: 30.28"   Gusts: NA
Location:  36.83°N, 79.4°W
Report Text: KDAN 210153Z AUTO 00000KT 10SM OVC065 03/M01 A3028 RMK AO2 SLP251 T00331006
Loading
Personal Weather Stations






























Interactive Weather Map New forecast layout! Learn more

10-Day Weather Forecast

Advertisements
Track Severe Weather on mobile